sensor_id;sensor_type;location;lat;lon;timestamp;pressure;altitude;pressure_sealevel;temperature;humidity
81243;BME280;70716;50.074;14.496;2023-07-28T00:00:08;98138.97;;;16.19;84.04
81243;BME280;70716;50.074;14.496;2023-07-28T00:02:33;98128.75;;;16.19;83.74
81243;BME280;70716;50.074;14.496;2023-07-28T00:05:02;98129.09;;;16.14;84.08
81243;BME280;70716;50.074;14.496;2023-07-28T00:07:27;98125.19;;;16.15;84.46
81243;BME280;70716;50.074;14.496;2023-07-28T00:09:52;98119.72;;;16.19;84.47
81243;BME280;70716;50.074;14.496;2023-07-28T00:12:18;98118.19;;;16.22;84.11
81243;BME280;70716;50.074;14.496;2023-07-28T00:14:43;98119.78;;;16.23;84.21
81243;BME280;70716;50.074;14.496;2023-07-28T00:17:08;98112.75;;;16.25;84.12
81243;BME280;70716;50.074;14.496;2023-07-28T00:19:34;98113.94;;;16.28;84.38
81243;BME280;70716;50.074;14.496;2023-07-28T00:21:59;98118.28;;;16.29;84.34
81243;BME280;70716;50.074;14.496;2023-07-28T00:24:26;98112.41;;;16.30;84.52
81243;BME280;70716;50.074;14.496;2023-07-28T00:26:51;98110.50;;;16.34;84.18
81243;BME280;70716;50.074;14.496;2023-07-28T00:29:18;98110.47;;;16.31;84.43
81243;BME280;70716;50.074;14.496;2023-07-28T00:31:43;98114.75;;;16.28;84.42
81243;BME280;70716;50.074;14.496;2023-07-28T00:34:09;98121.88;;;16.33;84.33
81243;BME280;70716;50.074;14.496;2023-07-28T00:36:34;98119.56;;;16.35;83.93
81243;BME280;70716;50.074;14.496;2023-07-28T00:38:59;98123.53;;;16.37;84.28
81243;BME280;70716;50.074;14.496;2023-07-28T00:41:25;98130.22;;;16.40;83.98
81243;BME280;70716;50.074;14.496;2023-07-28T00:43:53;98132.19;;;16.39;84.36
81243;BME280;70716;50.074;14.496;2023-07-28T00:46:19;98114.53;;;16.40;84.63
81243;BME280;70716;50.074;14.496;2023-07-28T00:48:44;98124.78;;;16.43;84.66
81243;BME280;70716;50.074;14.496;2023-07-28T00:51:13;98130.28;;;16.43;84.43
81243;BME280;70716;50.074;14.496;2023-07-28T00:53:39;98129.63;;;16.54;84.23
81243;BME280;70716;50.074;14.496;2023-07-28T00:56:05;98123.28;;;16.49;84.40
81243;BME280;70716;50.074;14.496;2023-07-28T00:58:34;98120.16;;;16.51;84.57
81243;BME280;70716;50.074;14.496;2023-07-28T01:00:59;98117.41;;;16.51;84.84
81243;BME280;70716;50.074;14.496;2023-07-28T01:03:25;98118.59;;;16.50;84.47
81243;BME280;70716;50.074;14.496;2023-07-28T01:06:22;98110.34;;;16.50;84.46
81243;BME280;70716;50.074;14.496;2023-07-28T01:08:55;98104.88;;;16.54;84.23
81243;BME280;70716;50.074;14.496;2023-07-28T01:11:21;98104.00;;;16.46;84.90
81243;BME280;70716;50.074;14.496;2023-07-28T01:13:48;98095.41;;;16.51;84.44
81243;BME280;70716;50.074;14.496;2023-07-28T01:16:14;98099.72;;;16.48;84.48
81243;BME280;70716;50.074;14.496;2023-07-28T01:18:40;98098.53;;;16.49;84.58
81243;BME280;70716;50.074;14.496;2023-07-28T01:21:08;98091.50;;;16.52;84.35
81243;BME280;70716;50.074;14.496;2023-07-28T01:26:09;98091.84;;;16.47;84.69
81243;BME280;70716;50.074;14.496;2023-07-28T01:28:36;98082.84;;;16.50;84.38
81243;BME280;70716;50.074;14.496;2023-07-28T01:31:04;98083.59;;;16.47;84.39
81243;BME280;70716;50.074;14.496;2023-07-28T01:33:30;98079.66;;;16.48;84.61
81243;BME280;70716;50.074;14.496;2023-07-28T01:35:55;98084.78;;;16.49;84.39
81243;BME280;70716;50.074;14.496;2023-07-28T01:38:21;98074.22;;;16.51;84.24
81243;BME280;70716;50.074;14.496;2023-07-28T01:40:47;98076.16;;;16.51;84.41
81243;BME280;70716;50.074;14.496;2023-07-28T01:43:12;98078.13;;;16.50;84.09
81243;BME280;70716;50.074;14.496;2023-07-28T01:45:38;98065.44;;;16.42;84.51
81243;BME280;70716;50.074;14.496;2023-07-28T01:48:03;98061.59;;;16.47;84.34
81243;BME280;70716;50.074;14.496;2023-07-28T01:50:32;98068.66;;;16.48;83.96
81243;BME280;70716;50.074;14.496;2023-07-28T01:52:58;98056.44;;;16.45;84.51
81243;BME280;70716;50.074;14.496;2023-07-28T01:55:23;98050.94;;;16.45;84.62
81243;BME280;70716;50.074;14.496;2023-07-28T01:58:00;98056.81;;;16.44;84.49
81243;BME280;70716;50.074;14.496;2023-07-28T02:00:26;98060.78;;;16.46;84.47
81243;BME280;70716;50.074;14.496;2023-07-28T02:02:52;98063.53;;;16.46;84.24
81243;BME280;70716;50.074;14.496;2023-07-28T02:05:19;98060.38;;;16.44;84.68
81243;BME280;70716;50.074;14.496;2023-07-28T02:07:45;98057.63;;;16.44;84.71
81243;BME280;70716;50.074;14.496;2023-07-28T02:10:13;98054.81;;;16.41;84.61
81243;BME280;70716;50.074;14.496;2023-07-28T02:12:40;98059.16;;;16.42;85.14
81243;BME280;70716;50.074;14.496;2023-07-28T02:15:06;98058.03;;;16.46;84.63
81243;BME280;70716;50.074;14.496;2023-07-28T02:17:32;98062.78;;;16.49;84.48
81243;BME280;70716;50.074;14.496;2023-07-28T02:19:57;98056.91;;;16.51;84.55
81243;BME280;70716;50.074;14.496;2023-07-28T02:22:23;98054.63;;;16.57;83.47
81243;BME280;70716;50.074;14.496;2023-07-28T02:24:51;98053.84;;;16.56;84.01
81243;BME280;70716;50.074;14.496;2023-07-28T02:27:17;98059.72;;;16.55;84.14
81243;BME280;70716;50.074;14.496;2023-07-28T02:29:42;98055.09;;;16.62;83.83
81243;BME280;70716;50.074;14.496;2023-07-28T02:32:08;98048.25;;;16.49;85.95
81243;BME280;70716;50.074;14.496;2023-07-28T02:34:34;98063.03;;;16.37;86.21
81243;BME280;70716;50.074;14.496;2023-07-28T02:36:59;98052.81;;;16.38;86.28
81243;BME280;70716;50.074;14.496;2023-07-28T02:39:25;98055.47;;;16.31;87.00
81243;BME280;70716;50.074;14.496;2023-07-28T02:41:50;98057.84;;;16.32;86.14
81243;BME280;70716;50.074;14.496;2023-07-28T02:44:18;98057.06;;;16.32;86.60
81243;BME280;70716;50.074;14.496;2023-07-28T02:46:44;98057.91;;;16.36;86.06
81243;BME280;70716;50.074;14.496;2023-07-28T02:49:09;98062.19;;;16.33;86.75
81243;BME280;70716;50.074;14.496;2023-07-28T02:51:35;98059.47;;;16.37;86.77
81243;BME280;70716;50.074;14.496;2023-07-28T02:54:00;98059.72;;;16.25;86.78
81243;BME280;70716;50.074;14.496;2023-07-28T02:56:26;98059.66;;;16.21;87.13
81243;BME280;70716;50.074;14.496;2023-07-28T02:58:51;98055.38;;;16.24;86.71
81243;BME280;70716;50.074;14.496;2023-07-28T03:01:17;98063.16;;;16.18;87.17
81243;BME280;70716;50.074;14.496;2023-07-28T03:03:45;98062.09;;;16.26;87.22
81243;BME280;70716;50.074;14.496;2023-07-28T03:06:12;98063.69;;;16.27;86.83
81243;BME280;70716;50.074;14.496;2023-07-28T03:08:37;98060.81;;;16.20;86.85
81243;BME280;70716;50.074;14.496;2023-07-28T03:11:03;98056.91;;;16.21;87.33
81243;BME280;70716;50.074;14.496;2023-07-28T03:13:28;98061.66;;;16.24;86.81
81243;BME280;70716;50.074;14.496;2023-07-28T03:15:54;98071.13;;;16.27;86.83
81243;BME280;70716;50.074;14.496;2023-07-28T03:18:20;98074.31;;;16.29;86.16
81243;BME280;70716;50.074;14.496;2023-07-28T03:20:46;98064.13;;;16.33;86.38
81243;BME280;70716;50.074;14.496;2023-07-28T03:23:11;98067.13;;;16.21;87.20
81243;BME280;70716;50.074;14.496;2023-07-28T03:25:37;98062.38;;;16.17;87.26
81243;BME280;70716;50.074;14.496;2023-07-28T03:28:02;98077.69;;;16.18;87.09
81243;BME280;70716;50.074;14.496;2023-07-28T03:30:28;98063.56;;;16.20;87.16
81243;BME280;70716;50.074;14.496;2023-07-28T03:32:53;98071.03;;;16.19;86.68
81243;BME280;70716;50.074;14.496;2023-07-28T03:35:18;98069.44;;;16.18;86.95
81243;BME280;70716;50.074;14.496;2023-07-28T03:37:44;98064.38;;;16.21;86.73
81243;BME280;70716;50.074;14.496;2023-07-28T03:40:09;98071.41;;;16.18;87.10
81243;BME280;70716;50.074;14.496;2023-07-28T03:42:38;98071.38;;;16.14;86.90
81243;BME280;70716;50.074;14.496;2023-07-28T03:45:04;98070.91;;;16.09;87.56
81243;BME280;70716;50.074;14.496;2023-07-28T03:47:29;98067.78;;;16.10;87.33
81243;BME280;70716;50.074;14.496;2023-07-28T03:49:55;98060.38;;;16.14;87.27
81243;BME280;70716;50.074;14.496;2023-07-28T03:52:20;98068.66;;;16.18;86.67
81243;BME280;70716;50.074;14.496;2023-07-28T03:54:46;98066.31;;;16.16;87.06
81243;BME280;70716;50.074;14.496;2023-07-28T03:57:11;98061.66;;;16.24;86.56
81243;BME280;70716;50.074;14.496;2023-07-28T03:59:36;98067.84;;;16.17;87.54
81243;BME280;70716;50.074;14.496;2023-07-28T04:02:02;98062.75;;;16.16;87.03
81243;BME280;70716;50.074;14.496;2023-07-28T04:04:27;98065.13;;;16.17;87.00
81243;BME280;70716;50.074;14.496;2023-07-28T04:06:53;98072.63;;;16.21;87.03
81243;BME280;70716;50.074;14.496;2023-07-28T04:09:19;98067.91;;;16.21;86.35
81243;BME280;70716;50.074;14.496;2023-07-28T04:11:45;98063.31;;;16.29;86.41
81243;BME280;70716;50.074;14.496;2023-07-28T04:14:10;98067.25;;;16.31;86.61
81243;BME280;70716;50.074;14.496;2023-07-28T04:16:39;98068.91;;;16.36;85.81
81243;BME280;70716;50.074;14.496;2023-07-28T04:19:05;98080.97;;;16.28;86.11
81243;BME280;70716;50.074;14.496;2023-07-28T04:21:30;98067.63;;;16.30;85.93
81243;BME280;70716;50.074;14.496;2023-07-28T04:23:55;98076.63;;;16.27;86.10
81243;BME280;70716;50.074;14.496;2023-07-28T04:26:23;98081.66;;;16.21;86.14
81243;BME280;70716;50.074;14.496;2023-07-28T04:28:48;98088.78;;;16.26;85.75
81243;BME280;70716;50.074;14.496;2023-07-28T04:31:14;98083.59;;;16.21;86.42
81243;BME280;70716;50.074;14.496;2023-07-28T04:33:45;98087.19;;;16.25;85.95
81243;BME280;70716;50.074;14.496;2023-07-28T04:36:10;98087.19;;;16.25;86.50
81243;BME280;70716;50.074;14.496;2023-07-28T04:38:39;98090.78;;;16.29;86.46
81243;BME280;70716;50.074;14.496;2023-07-28T04:41:04;98093.06;;;16.23;86.51
81243;BME280;70716;50.074;14.496;2023-07-28T04:43:29;98093.13;;;16.27;85.76
81243;BME280;70716;50.074;14.496;2023-07-28T04:45:55;98093.03;;;16.19;85.81
81243;BME280;70716;50.074;14.496;2023-07-28T04:48:21;98087.69;;;16.30;85.39
81243;BME280;70716;50.074;14.496;2023-07-28T04:50:46;98083.03;;;16.34;86.06
81243;BME280;70716;50.074;14.496;2023-07-28T04:53:13;98093.53;;;16.29;85.85
81243;BME280;70716;50.074;14.496;2023-07-28T04:55:38;98095.56;;;16.32;86.08
81243;BME280;70716;50.074;14.496;2023-07-28T04:58:04;98094.38;;;16.33;86.26
81243;BME280;70716;50.074;14.496;2023-07-28T05:00:29;98086.59;;;16.38;85.96
81243;BME280;70716;50.074;14.496;2023-07-28T05:02:54;98093.66;;;16.36;86.31
81243;BME280;70716;50.074;14.496;2023-07-28T05:05:20;98090.94;;;16.39;85.87
81243;BME280;70716;50.074;14.496;2023-07-28T05:07:45;98091.38;;;16.41;86.30
81243;BME280;70716;50.074;14.496;2023-07-28T05:10:11;98089.72;;;16.37;86.54
81243;BME280;70716;50.074;14.496;2023-07-28T05:12:36;98095.66;;;16.39;86.18
81243;BME280;70716;50.074;14.496;2023-07-28T05:15:02;98097.22;;;16.40;86.39
81243;BME280;70716;50.074;14.496;2023-07-28T05:17:27;98096.81;;;16.38;86.50
81243;BME280;70716;50.074;14.496;2023-07-28T05:19:55;98103.56;;;16.44;86.85
81243;BME280;70716;50.074;14.496;2023-07-28T05:22:20;98101.94;;;16.39;87.09
81243;BME280;70716;50.074;14.496;2023-07-28T05:24:46;98100.41;;;16.42;86.92
81243;BME280;70716;50.074;14.496;2023-07-28T05:27:11;98101.28;;;16.49;86.84
81243;BME280;70716;50.074;14.496;2023-07-28T05:29:37;98106.00;;;16.49;87.13
81243;BME280;70716;50.074;14.496;2023-07-28T05:32:02;98104.59;;;16.62;86.63
81243;BME280;70716;50.074;14.496;2023-07-28T05:34:29;98110.09;;;16.62;86.85
81243;BME280;70716;50.074;14.496;2023-07-28T05:36:54;98108.53;;;16.61;86.98
81243;BME280;70716;50.074;14.496;2023-07-28T05:39:23;98109.59;;;16.53;86.52
81243;BME280;70716;50.074;14.496;2023-07-28T05:41:48;98113.94;;;16.54;86.83
81243;BME280;70716;50.074;14.496;2023-07-28T05:44:14;98106.88;;;16.57;86.97
81243;BME280;70716;50.074;14.496;2023-07-28T05:46:40;98110.09;;;16.62;87.06
81243;BME280;70716;50.074;14.496;2023-07-28T05:49:05;98119.00;;;16.82;86.46
81243;BME280;70716;50.074;14.496;2023-07-28T05:51:34;98125.38;;;16.90;86.19
81243;BME280;70716;50.074;14.496;2023-07-28T05:53:59;98119.59;;;16.98;86.04
81243;BME280;70716;50.074;14.496;2023-07-28T05:56:25;98130.38;;;17.14;85.04
81243;BME280;70716;50.074;14.496;2023-07-28T05:58:50;98128.06;;;17.16;85.16
81243;BME280;70716;50.074;14.496;2023-07-28T06:01:16;98130.81;;;17.16;84.71
81243;BME280;70716;50.074;14.496;2023-07-28T06:03:42;98136.34;;;17.20;85.24
81243;BME280;70716;50.074;14.496;2023-07-28T06:06:08;98137.19;;;17.24;85.11
81243;BME280;70716;50.074;14.496;2023-07-28T06:08:34;98136.47;;;17.30;84.76
81243;BME280;70716;50.074;14.496;2023-07-28T06:10:59;98138.47;;;17.37;85.20
81243;BME280;70716;50.074;14.496;2023-07-28T06:13:25;98133.41;;;17.42;83.99
81243;BME280;70716;50.074;14.496;2023-07-28T06:15:53;98140.88;;;17.42;83.98
81243;BME280;70716;50.074;14.496;2023-07-28T06:18:18;98136.28;;;17.53;83.64
81243;BME280;70716;50.074;14.496;2023-07-28T06:20:43;98144.19;;;17.58;83.21
81243;BME280;70716;50.074;14.496;2023-07-28T06:23:09;98142.16;;;17.52;83.63
81243;BME280;70716;50.074;14.496;2023-07-28T06:25:34;98144.16;;;17.55;83.75
81243;BME280;70716;50.074;14.496;2023-07-28T06:28:00;98146.53;;;17.56;84.47
81243;BME280;70716;50.074;14.496;2023-07-28T06:30:26;98144.19;;;17.58;83.82
81243;BME280;70716;50.074;14.496;2023-07-28T06:32:51;98142.97;;;17.52;83.21
81243;BME280;70716;50.074;14.496;2023-07-28T06:35:16;98145.00;;;17.59;83.25
81243;BME280;70716;50.074;14.496;2023-07-28T06:37:44;98138.81;;;17.69;83.08
81243;BME280;70716;50.074;14.496;2023-07-28T06:40:13;98151.03;;;17.71;83.78
81243;BME280;70716;50.074;14.496;2023-07-28T06:42:38;98149.38;;;17.63;83.53
81243;BME280;70716;50.074;14.496;2023-07-28T06:45:04;98153.47;;;17.80;83.46
81243;BME280;70716;50.074;14.496;2023-07-28T06:47:29;98155.44;;;17.79;84.05
81243;BME280;70716;50.074;14.496;2023-07-28T06:49:55;98157.81;;;17.81;83.99
81243;BME280;70716;50.074;14.496;2023-07-28T06:52:22;98161.88;;;17.98;84.03
81243;BME280;70716;50.074;14.496;2023-07-28T06:54:47;98157.28;;;18.12;83.57
81243;BME280;70716;50.074;14.496;2023-07-28T06:57:14;98150.16;;;18.08;83.59
81243;BME280;70716;50.074;14.496;2023-07-28T06:59:40;98152.03;;;17.97;84.41
81243;BME280;70716;50.074;14.496;2023-07-28T07:02:05;98154.50;;;18.12;82.98
81243;BME280;70716;50.074;14.496;2023-07-28T07:04:31;98157.28;;;18.16;83.27
81243;BME280;70716;50.074;14.496;2023-07-28T07:06:56;98159.41;;;18.37;82.55
81243;BME280;70716;50.074;14.496;2023-07-28T07:09:22;98150.41;;;18.43;82.00
81243;BME280;70716;50.074;14.496;2023-07-28T07:11:47;98150.84;;;18.60;81.48
81243;BME280;70716;50.074;14.496;2023-07-28T07:14:12;98152.47;;;18.61;81.15
81243;BME280;70716;50.074;14.496;2023-07-28T07:16:39;98153.34;;;18.75;81.29
81243;BME280;70716;50.074;14.496;2023-07-28T07:19:05;98156.97;;;18.94;79.76
81243;BME280;70716;50.074;14.496;2023-07-28T07:21:31;98155.44;;;19.00;79.03
81243;BME280;70716;50.074;14.496;2023-07-28T07:23:56;98162.53;;;19.08;79.42
81243;BME280;70716;50.074;14.496;2023-07-28T07:26:21;98160.22;;;19.24;78.93
81243;BME280;70716;50.074;14.496;2023-07-28T07:28:47;98159.56;;;19.59;77.93
81243;BME280;70716;50.074;14.496;2023-07-28T07:31:19;98160.34;;;19.95;76.40
81243;BME280;70716;50.074;14.496;2023-07-28T07:33:45;98169.84;;;19.94;76.51
81243;BME280;70716;50.074;14.496;2023-07-28T07:36:18;98161.13;;;20.24;75.41
81243;BME280;70716;50.074;14.496;2023-07-28T07:38:46;98162.69;;;20.47;75.42
81243;BME280;70716;50.074;14.496;2023-07-28T07:41:12;98167.44;;;20.32;74.93
81243;BME280;70716;50.074;14.496;2023-07-28T07:43:44;98174.97;;;20.42;74.95
81243;BME280;70716;50.074;14.496;2023-07-28T07:46:09;98183.13;;;20.92;73.66
81243;BME280;70716;50.074;14.496;2023-07-28T07:48:35;98186.88;;;21.44;71.65
81243;BME280;70716;50.074;14.496;2023-07-28T07:51:00;98182.91;;;21.49;70.15
81243;BME280;70716;50.074;14.496;2023-07-28T07:53:25;98184.72;;;21.73;68.96
81243;BME280;70716;50.074;14.496;2023-07-28T07:55:51;98195.63;;;21.39;71.22
81243;BME280;70716;50.074;14.496;2023-07-28T07:58:16;98193.34;;;21.23;71.68
81243;BME280;70716;50.074;14.496;2023-07-28T08:00:41;98191.56;;;20.46;73.23
81243;BME280;70716;50.074;14.496;2023-07-28T08:03:09;98193.53;;;20.52;73.99
81243;BME280;70716;50.074;14.496;2023-07-28T08:05:35;98196.97;;;20.92;72.28
81243;BME280;70716;50.074;14.496;2023-07-28T08:08:01;98189.13;;;20.76;73.98
81243;BME280;70716;50.074;14.496;2023-07-28T08:10:26;98195.03;;;20.85;73.30
81243;BME280;70716;50.074;14.496;2023-07-28T08:12:52;98197.75;;;20.96;73.45
81243;BME280;70716;50.074;14.496;2023-07-28T08:15:17;98205.63;;;21.22;72.50
81243;BME280;70716;50.074;14.496;2023-07-28T08:17:46;98196.91;;;21.09;70.31
81243;BME280;70716;50.074;14.496;2023-07-28T08:20:12;98196.59;;;20.93;72.18
81243;BME280;70716;50.074;14.496;2023-07-28T08:22:37;98192.16;;;21.17;71.51
81243;BME280;70716;50.074;14.496;2023-07-28T08:25:04;98197.91;;;21.55;71.28
81243;BME280;70716;50.074;14.496;2023-07-28T08:27:29;98204.56;;;21.68;69.93
81243;BME280;70716;50.074;14.496;2023-07-28T08:29:55;98200.13;;;21.81;69.87
81243;BME280;70716;50.074;14.496;2023-07-28T08:32:20;98197.75;;;21.03;70.46
81243;BME280;70716;50.074;14.496;2023-07-28T08:34:48;98200.00;;;21.36;71.44
81243;BME280;70716;50.074;14.496;2023-07-28T08:37:13;98201.28;;;21.03;70.10
81243;BME280;70716;50.074;14.496;2023-07-28T08:39:39;98194.13;;;21.13;70.96
81243;BME280;70716;50.074;14.496;2023-07-28T08:42:04;98196.50;;;21.25;70.77
81243;BME280;70716;50.074;14.496;2023-07-28T08:44:31;98199.84;;;21.61;69.87
81243;BME280;70716;50.074;14.496;2023-07-28T08:46:57;98194.19;;;21.79;67.94
81243;BME280;70716;50.074;14.496;2023-07-28T08:49:23;98195.72;;;22.39;67.79
81243;BME280;70716;50.074;14.496;2023-07-28T08:51:50;98202.69;;;22.54;65.79
81243;BME280;70716;50.074;14.496;2023-07-28T08:54:15;98194.34;;;22.58;66.15
81243;BME280;70716;50.074;14.496;2023-07-28T08:56:44;98204.34;;;22.00;66.02
81243;BME280;70716;50.074;14.496;2023-07-28T08:59:10;98195.09;;;21.62;67.24
81243;BME280;70716;50.074;14.496;2023-07-28T09:01:39;98205.34;;;21.68;67.68
81243;BME280;70716;50.074;14.496;2023-07-28T09:04:10;98208.03;;;21.86;66.77
81243;BME280;70716;50.074;14.496;2023-07-28T09:06:39;98201.78;;;21.68;67.42
81243;BME280;70716;50.074;14.496;2023-07-28T09:09:08;98200.13;;;21.81;67.18
81243;BME280;70716;50.074;14.496;2023-07-28T09:11:53;98200.06;;;21.92;67.17
81243;BME280;70716;50.074;14.496;2023-07-28T09:14:21;98208.63;;;22.12;66.75
81243;BME280;70716;50.074;14.496;2023-07-28T09:16:52;98206.41;;;22.40;64.70
81243;BME280;70716;50.074;14.496;2023-07-28T09:19:20;98202.56;;;22.68;64.61
81243;BME280;70716;50.074;14.496;2023-07-28T09:21:58;98196.50;;;22.81;63.42
81243;BME280;70716;50.074;14.496;2023-07-28T09:24:30;98198.56;;;22.73;63.86
81243;BME280;70716;50.074;14.496;2023-07-28T09:26:57;98196.31;;;22.57;63.38
81243;BME280;70716;50.074;14.496;2023-07-28T09:29:23;98212.66;;;22.03;65.33
81243;BME280;70716;50.074;14.496;2023-07-28T09:31:50;98213.25;;;21.73;66.05
81243;BME280;70716;50.074;14.496;2023-07-28T09:34:26;98203.88;;;21.50;67.03
81243;BME280;70716;50.074;14.496;2023-07-28T09:36:59;98204.81;;;21.91;66.69
81243;BME280;70716;50.074;14.496;2023-07-28T09:39:27;98200.06;;;22.44;65.43
81243;BME280;70716;50.074;14.496;2023-07-28T09:41:53;98199.88;;;22.99;63.87
81243;BME280;70716;50.074;14.496;2023-07-28T09:44:23;98188.53;;;22.86;64.38
81243;BME280;70716;50.074;14.496;2023-07-28T09:46:53;98194.88;;;22.87;63.36
81243;BME280;70716;50.074;14.496;2023-07-28T09:51:54;98197.53;;;23.62;61.48
81243;BME280;70716;50.074;14.496;2023-07-28T09:54:30;98200.03;;;24.30;60.73
81243;BME280;70716;50.074;14.496;2023-07-28T09:56:58;98200.56;;;24.68;58.26
81243;BME280;70716;50.074;14.496;2023-07-28T09:59:28;98191.09;;;24.42;57.67
81243;BME280;70716;50.074;14.496;2023-07-28T10:01:58;98192.47;;;24.30;57.78
81243;BME280;70716;50.074;14.496;2023-07-28T10:04:25;98182.72;;;24.42;58.26
81243;BME280;70716;50.074;14.496;2023-07-28T10:06:53;98188.47;;;24.55;56.61
81243;BME280;70716;50.074;14.496;2023-07-28T10:09:24;98184.16;;;24.74;55.12
81243;BME280;70716;50.074;14.496;2023-07-28T10:11:50;98185.22;;;24.80;55.55
81243;BME280;70716;50.074;14.496;2023-07-28T10:14:28;98187.06;;;24.66;55.42
81243;BME280;70716;50.074;14.496;2023-07-28T10:16:59;98186.53;;;24.52;56.44
81243;BME280;70716;50.074;14.496;2023-07-28T10:19:27;98190.09;;;24.76;56.76
81243;BME280;70716;50.074;14.496;2023-07-28T10:22:07;98190.84;;;25.19;55.07
81243;BME280;70716;50.074;14.496;2023-07-28T10:24:52;98191.31;;;24.51;56.02
81243;BME280;70716;50.074;14.496;2023-07-28T10:27:38;98195.78;;;24.68;55.16
81243;BME280;70716;50.074;14.496;2023-07-28T10:30:11;98196.22;;;24.87;55.17
81243;BME280;70716;50.074;14.496;2023-07-28T10:32:39;98198.34;;;24.36;55.99
81243;BME280;70716;50.074;14.496;2023-07-28T10:37:45;98201.38;;;24.88;54.02
81243;BME280;70716;50.074;14.496;2023-07-28T10:40:26;98206.22;;;24.64;54.84
81243;BME280;70716;50.074;14.496;2023-07-28T10:42:53;98196.16;;;24.90;54.71
81243;BME280;70716;50.074;14.496;2023-07-28T10:45:19;98212.88;;;24.90;54.13
81243;BME280;70716;50.074;14.496;2023-07-28T10:47:48;98213.91;;;25.00;53.62
81243;BME280;70716;50.074;14.496;2023-07-28T10:50:14;98215.66;;;24.24;55.17
81243;BME280;70716;50.074;14.496;2023-07-28T10:52:41;98206.94;;;24.22;54.67
81243;BME280;70716;50.074;14.496;2023-07-28T10:55:16;98215.72;;;24.20;54.49
81243;BME280;70716;50.074;14.496;2023-07-28T10:57:44;98207.84;;;24.39;54.49
81243;BME280;70716;50.074;14.496;2023-07-28T11:00:16;98214.50;;;24.68;53.73
81243;BME280;70716;50.074;14.496;2023-07-28T11:02:43;98210.81;;;24.75;53.88
81243;BME280;70716;50.074;14.496;2023-07-28T11:05:26;98210.44;;;24.92;52.71
81243;BME280;70716;50.074;14.496;2023-07-28T11:07:54;98210.06;;;25.14;51.89
81243;BME280;70716;50.074;14.496;2023-07-28T11:10:20;98212.72;;;25.41;51.63
81243;BME280;70716;50.074;14.496;2023-07-28T11:12:49;98210.91;;;25.86;49.87
81243;BME280;70716;50.074;14.496;2023-07-28T11:15:15;98210.97;;;25.66;50.18
81243;BME280;70716;50.074;14.496;2023-07-28T11:17:46;98209.13;;;25.00;51.80
81243;BME280;70716;50.074;14.496;2023-07-28T11:20:23;98212.25;;;24.83;51.47
81243;BME280;70716;50.074;14.496;2023-07-28T11:25:22;98209.47;;;25.02;51.79
81243;BME280;70716;50.074;14.496;2023-07-28T11:27:49;98208.91;;;25.11;51.38
81243;BME280;70716;50.074;14.496;2023-07-28T11:30:16;98210.34;;;25.39;50.98
81243;BME280;70716;50.074;14.496;2023-07-28T11:32:43;98211.88;;;25.60;51.11
81243;BME280;70716;50.074;14.496;2023-07-28T11:35:11;98206.38;;;25.56;51.00
81243;BME280;70716;50.074;14.496;2023-07-28T11:37:43;98201.69;;;25.33;50.49
81243;BME280;70716;50.074;14.496;2023-07-28T11:40:14;98206.16;;;24.68;53.19
81243;BME280;70716;50.074;14.496;2023-07-28T11:42:45;98213.66;;;24.71;53.34
81243;BME280;70716;50.074;14.496;2023-07-28T11:45:13;98210.56;;;24.42;54.43
81243;BME280;70716;50.074;14.496;2023-07-28T11:47:39;98213.56;;;24.04;54.38
81243;BME280;70716;50.074;14.496;2023-07-28T11:50:05;98216.25;;;23.85;55.85
81243;BME280;70716;50.074;14.496;2023-07-28T11:52:36;98211.16;;;23.80;55.63
81243;BME280;70716;50.074;14.496;2023-07-28T11:55:04;98214.50;;;23.94;55.23
81243;BME280;70716;50.074;14.496;2023-07-28T11:57:33;98212.41;;;24.02;55.25
81243;BME280;70716;50.074;14.496;2023-07-28T11:59:59;98207.88;;;24.12;55.14
81243;BME280;70716;50.074;14.496;2023-07-28T12:02:26;98203.56;;;24.34;54.27
81243;BME280;70716;50.074;14.496;2023-07-28T12:04:52;98200.63;;;24.64;53.32
81243;BME280;70716;50.074;14.496;2023-07-28T12:07:26;98209.69;;;25.12;52.39
81243;BME280;70716;50.074;14.496;2023-07-28T12:09:52;98198.13;;;25.33;51.82
81243;BME280;70716;50.074;14.496;2023-07-28T12:12:23;98198.94;;;25.50;51.18
81243;BME280;70716;50.074;14.496;2023-07-28T12:14:49;98202.59;;;25.66;50.31
81243;BME280;70716;50.074;14.496;2023-07-28T12:17:24;98205.84;;;25.81;50.09
81243;BME280;70716;50.074;14.496;2023-07-28T12:19:59;98206.72;;;26.11;48.70
81243;BME280;70716;50.074;14.496;2023-07-28T12:22:26;98202.78;;;25.76;49.37
81243;BME280;70716;50.074;14.496;2023-07-28T12:24:55;98203.38;;;25.47;50.46
81243;BME280;70716;50.074;14.496;2023-07-28T12:27:22;98204.34;;;25.77;49.82
81243;BME280;70716;50.074;14.496;2023-07-28T12:29:50;98195.97;;;25.77;49.31
81243;BME280;70716;50.074;14.496;2023-07-28T12:32:16;98193.00;;;25.48;49.74
81243;BME280;70716;50.074;14.496;2023-07-28T12:34:43;98193.50;;;25.43;51.38
81243;BME280;70716;50.074;14.496;2023-07-28T12:37:08;98205.44;;;25.43;49.19
81243;BME280;70716;50.074;14.496;2023-07-28T12:39:37;98205.22;;;25.54;50.16
81243;BME280;70716;50.074;14.496;2023-07-28T12:42:10;98200.28;;;25.61;49.04
81243;BME280;70716;50.074;14.496;2023-07-28T12:44:39;98198.56;;;25.48;48.95
81243;BME280;70716;50.074;14.496;2023-07-28T12:47:05;98201.88;;;25.43;49.76
81243;BME280;70716;50.074;14.496;2023-07-28T12:49:34;98202.34;;;25.41;50.12
81243;BME280;70716;50.074;14.496;2023-07-28T12:52:05;98198.56;;;25.31;50.30
81243;BME280;70716;50.074;14.496;2023-07-28T12:54:34;98193.13;;;25.05;50.62
81243;BME280;70716;50.074;14.496;2023-07-28T12:57:00;98186.66;;;24.68;51.42
81243;BME280;70716;50.074;14.496;2023-07-28T12:59:26;98185.59;;;24.82;50.91